sensor_id;sensor_type;location;lat;lon;timestamp;temperature;humidity
13148;DHT22;6639;50.956;4.242;2023-05-15T00:01:38;20.50;99.90
13148;DHT22;6639;50.956;4.242;2023-05-15T00:04:05;20.40;99.90
13148;DHT22;6639;50.956;4.242;2023-05-15T00:06:32;20.40;99.90
13148;DHT22;6639;50.956;4.242;2023-05-15T00:08:59;20.30;99.90
13148;DHT22;6639;50.956;4.242;2023-05-15T00:11:26;20.20;99.90
13148;DHT22;6639;50.956;4.242;2023-05-15T00:13:53;20.30;99.90
13148;DHT22;6639;50.956;4.242;2023-05-15T00:16:21;20.20;99.90
13148;DHT22;6639;50.956;4.242;2023-05-15T00:18:48;20.00;99.90
13148;DHT22;6639;50.956;4.242;2023-05-15T00:21:15;19.90;99.90
13148;DHT22;6639;50.956;4.242;2023-05-15T00:23:42;19.70;99.90
13148;DHT22;6639;50.956;4.242;2023-05-15T00:26:09;19.80;99.90
13148;DHT22;6639;50.956;4.242;2023-05-15T00:28:40;19.50;99.90
13148;DHT22;6639;50.956;4.242;2023-05-15T00:31:07;19.60;99.90
13148;DHT22;6639;50.956;4.242;2023-05-15T00:33:35;19.40;99.90
13148;DHT22;6639;50.956;4.242;2023-05-15T00:36:02;19.20;99.90
13148;DHT22;6639;50.956;4.242;2023-05-15T00:38:30;19.40;99.90
13148;DHT22;6639;50.956;4.242;2023-05-15T00:40:58;19.20;99.90
13148;DHT22;6639;50.956;4.242;2023-05-15T00:43:25;19.30;99.90
13148;DHT22;6639;50.956;4.242;2023-05-15T00:45:54;19.20;99.90
13148;DHT22;6639;50.956;4.242;2023-05-15T00:48:23;19.30;99.90
13148;DHT22;6639;50.956;4.242;2023-05-15T00:50:52;19.30;99.90
13148;DHT22;6639;50.956;4.242;2023-05-15T00:53:20;19.40;99.90
13148;DHT22;6639;50.956;4.242;2023-05-15T00:55:49;19.50;99.90
13148;DHT22;6639;50.956;4.242;2023-05-15T00:58:17;19.50;99.90
13148;DHT22;6639;50.956;4.242;2023-05-15T01:00:47;19.70;99.90
13148;DHT22;6639;50.956;4.242;2023-05-15T01:03:15;19.60;99.90
13148;DHT22;6639;50.956;4.242;2023-05-15T01:05:43;19.70;99.90
13148;DHT22;6639;50.956;4.242;2023-05-15T01:08:17;19.80;99.90
13148;DHT22;6639;50.956;4.242;2023-05-15T01:10:46;19.90;99.90
13148;DHT22;6639;50.956;4.242;2023-05-15T01:13:14;19.80;99.90
13148;DHT22;6639;50.956;4.242;2023-05-15T01:15:42;19.80;99.90
13148;DHT22;6639;50.956;4.242;2023-05-15T01:18:09;19.80;99.90
13148;DHT22;6639;50.956;4.242;2023-05-15T01:23:37;19.40;99.90
13148;DHT22;6639;50.956;4.242;2023-05-15T01:26:47;19.60;99.90
13148;DHT22;6639;50.956;4.242;2023-05-15T01:29:23;19.50;99.90
13148;DHT22;6639;50.956;4.242;2023-05-15T01:31:56;19.40;99.90
13148;DHT22;6639;50.956;4.242;2023-05-15T01:34:30;19.40;99.90
13148;DHT22;6639;50.956;4.242;2023-05-15T01:37:01;19.50;99.90
13148;DHT22;6639;50.956;4.242;2023-05-15T01:39:32;19.40;99.90
13148;DHT22;6639;50.956;4.242;2023-05-15T01:42:05;19.40;99.90
13148;DHT22;6639;50.956;4.242;2023-05-15T01:44:35;19.50;99.90
13148;DHT22;6639;50.956;4.242;2023-05-15T01:47:09;19.20;99.90
13148;DHT22;6639;50.956;4.242;2023-05-15T01:49:38;19.40;99.90
13148;DHT22;6639;50.956;4.242;2023-05-15T01:52:13;19.40;99.90
13148;DHT22;6639;50.956;4.242;2023-05-15T01:54:42;19.20;99.90
13148;DHT22;6639;50.956;4.242;2023-05-15T01:57:11;19.10;99.90
13148;DHT22;6639;50.956;4.242;2023-05-15T01:59:40;19.20;99.90
13148;DHT22;6639;50.956;4.242;2023-05-15T02:02:09;19.40;99.90
13148;DHT22;6639;50.956;4.242;2023-05-15T02:04:37;19.30;99.90
13148;DHT22;6639;50.956;4.242;2023-05-15T02:07:04;19.40;99.90
13148;DHT22;6639;50.956;4.242;2023-05-15T02:09:32;19.40;99.90
13148;DHT22;6639;50.956;4.242;2023-05-15T02:12:00;19.20;99.90
13148;DHT22;6639;50.956;4.242;2023-05-15T02:14:28;19.10;99.90
13148;DHT22;6639;50.956;4.242;2023-05-15T02:16:56;19.00;99.90
13148;DHT22;6639;50.956;4.242;2023-05-15T02:19:24;19.20;99.90
13148;DHT22;6639;50.956;4.242;2023-05-15T02:21:50;19.20;99.90
13148;DHT22;6639;50.956;4.242;2023-05-15T02:24:17;19.20;99.90
13148;DHT22;6639;50.956;4.242;2023-05-15T02:26:50;19.40;99.90
13148;DHT22;6639;50.956;4.242;2023-05-15T02:29:23;19.30;99.90
13148;DHT22;6639;50.956;4.242;2023-05-15T02:32:01;19.40;99.90
13148;DHT22;6639;50.956;4.242;2023-05-15T02:34:35;19.40;99.90
13148;DHT22;6639;50.956;4.242;2023-05-15T02:37:04;19.40;99.90
13148;DHT22;6639;50.956;4.242;2023-05-15T02:39:32;19.30;99.90
13148;DHT22;6639;50.956;4.242;2023-05-15T02:42:00;19.40;99.90
13148;DHT22;6639;50.956;4.242;2023-05-15T02:44:28;19.40;99.90
13148;DHT22;6639;50.956;4.242;2023-05-15T02:46:58;19.40;99.90
13148;DHT22;6639;50.956;4.242;2023-05-15T02:49:26;19.40;99.90
13148;DHT22;6639;50.956;4.242;2023-05-15T02:51:53;19.40;99.90
13148;DHT22;6639;50.956;4.242;2023-05-15T02:54:20;19.40;99.90
13148;DHT22;6639;50.956;4.242;2023-05-15T02:56:47;19.30;99.90
13148;DHT22;6639;50.956;4.242;2023-05-15T02:59:14;19.40;99.90
13148;DHT22;6639;50.956;4.242;2023-05-15T03:01:44;19.50;99.90
13148;DHT22;6639;50.956;4.242;2023-05-15T03:04:12;19.40;99.90
13148;DHT22;6639;50.956;4.242;2023-05-15T03:06:40;19.40;99.90
13148;DHT22;6639;50.956;4.242;2023-05-15T03:09:07;19.40;99.90
13148;DHT22;6639;50.956;4.242;2023-05-15T03:11:34;19.30;99.90
13148;DHT22;6639;50.956;4.242;2023-05-15T03:14:01;19.30;99.90
13148;DHT22;6639;50.956;4.242;2023-05-15T03:16:27;19.40;99.90
13148;DHT22;6639;50.956;4.242;2023-05-15T03:18:54;19.20;99.90
13148;DHT22;6639;50.956;4.242;2023-05-15T03:21:23;19.20;99.90
13148;DHT22;6639;50.956;4.242;2023-05-15T03:23:50;19.30;99.90
13148;DHT22;6639;50.956;4.242;2023-05-15T03:26:16;19.20;99.90
13148;DHT22;6639;50.956;4.242;2023-05-15T03:28:43;19.30;99.90
13148;DHT22;6639;50.956;4.242;2023-05-15T03:31:10;19.00;99.90
13148;DHT22;6639;50.956;4.242;2023-05-15T03:33:39;18.90;99.90
13148;DHT22;6639;50.956;4.242;2023-05-15T03:36:06;19.00;99.90
13148;DHT22;6639;50.956;4.242;2023-05-15T03:38:34;19.10;99.90
13148;DHT22;6639;50.956;4.242;2023-05-15T03:41:01;18.90;99.90
13148;DHT22;6639;50.956;4.242;2023-05-15T03:43:28;18.80;99.90
13148;DHT22;6639;50.956;4.242;2023-05-15T03:45:55;18.40;99.90
13148;DHT22;6639;50.956;4.242;2023-05-15T03:48:22;18.60;99.90
13148;DHT22;6639;50.956;4.242;2023-05-15T03:50:50;18.60;99.90
13148;DHT22;6639;50.956;4.242;2023-05-15T03:53:17;18.70;99.90
13148;DHT22;6639;50.956;4.242;2023-05-15T03:55:46;18.90;99.90
13148;DHT22;6639;50.956;4.242;2023-05-15T03:58:13;19.20;99.90
13148;DHT22;6639;50.956;4.242;2023-05-15T04:00:40;18.90;99.90
13148;DHT22;6639;50.956;4.242;2023-05-15T04:03:07;18.90;99.90
13148;DHT22;6639;50.956;4.242;2023-05-15T04:05:34;18.90;99.90
13148;DHT22;6639;50.956;4.242;2023-05-15T04:08:01;18.60;99.90
13148;DHT22;6639;50.956;4.242;2023-05-15T04:10:28;18.60;99.90
13148;DHT22;6639;50.956;4.242;2023-05-15T04:12:58;18.80;99.90
13148;DHT22;6639;50.956;4.242;2023-05-15T04:15:25;18.80;99.90
13148;DHT22;6639;50.956;4.242;2023-05-15T04:17:53;18.50;99.90
13148;DHT22;6639;50.956;4.242;2023-05-15T04:20:21;18.80;99.90
13148;DHT22;6639;50.956;4.242;2023-05-15T04:22:50;19.00;99.90
13148;DHT22;6639;50.956;4.242;2023-05-15T04:25:17;18.60;99.90
13148;DHT22;6639;50.956;4.242;2023-05-15T04:27:45;18.60;99.90
13148;DHT22;6639;50.956;4.242;2023-05-15T04:30:15;18.80;99.90
13148;DHT22;6639;50.956;4.242;2023-05-15T04:32:42;18.80;99.90
13148;DHT22;6639;50.956;4.242;2023-05-15T04:35:09;18.40;99.90
13148;DHT22;6639;50.956;4.242;2023-05-15T04:37:38;18.20;99.90
13148;DHT22;6639;50.956;4.242;2023-05-15T04:40:06;18.00;99.90
13148;DHT22;6639;50.956;4.242;2023-05-15T04:42:34;18.00;99.90
13148;DHT22;6639;50.956;4.242;2023-05-15T04:45:01;18.40;99.90
13148;DHT22;6639;50.956;4.242;2023-05-15T04:47:29;18.40;99.90
13148;DHT22;6639;50.956;4.242;2023-05-15T04:49:56;18.60;99.90
13148;DHT22;6639;50.956;4.242;2023-05-15T04:52:23;18.50;99.90
13148;DHT22;6639;50.956;4.242;2023-05-15T04:54:50;18.70;99.90
13148;DHT22;6639;50.956;4.242;2023-05-15T04:57:20;18.80;99.90
13148;DHT22;6639;50.956;4.242;2023-05-15T04:59:47;18.60;99.90
13148;DHT22;6639;50.956;4.242;2023-05-15T05:02:14;18.40;99.90
13148;DHT22;6639;50.956;4.242;2023-05-15T05:04:42;18.60;99.90
13148;DHT22;6639;50.956;4.242;2023-05-15T05:07:10;18.70;99.90
13148;DHT22;6639;50.956;4.242;2023-05-15T05:09:38;18.80;99.90
13148;DHT22;6639;50.956;4.242;2023-05-15T05:12:06;18.60;99.90
13148;DHT22;6639;50.956;4.242;2023-05-15T05:14:34;18.60;99.90
13148;DHT22;6639;50.956;4.242;2023-05-15T05:17:01;18.60;99.90
13148;DHT22;6639;50.956;4.242;2023-05-15T05:19:28;18.80;99.90
13148;DHT22;6639;50.956;4.242;2023-05-15T05:21:57;18.80;99.90
13148;DHT22;6639;50.956;4.242;2023-05-15T05:24:29;18.60;99.90
13148;DHT22;6639;50.956;4.242;2023-05-15T05:26:56;18.60;99.90
13148;DHT22;6639;50.956;4.242;2023-05-15T05:29:23;18.30;99.90
13148;DHT22;6639;50.956;4.242;2023-05-15T05:31:50;18.40;99.90
13148;DHT22;6639;50.956;4.242;2023-05-15T05:34:18;18.70;99.90
13148;DHT22;6639;50.956;4.242;2023-05-15T05:36:44;18.70;99.90
13148;DHT22;6639;50.956;4.242;2023-05-15T05:39:13;18.50;99.90
13148;DHT22;6639;50.956;4.242;2023-05-15T05:41:40;18.50;99.90
13148;DHT22;6639;50.956;4.242;2023-05-15T05:44:07;18.70;99.90
13148;DHT22;6639;50.956;4.242;2023-05-15T05:46:35;18.70;99.90
13148;DHT22;6639;50.956;4.242;2023-05-15T05:49:02;18.80;99.90
13148;DHT22;6639;50.956;4.242;2023-05-15T05:51:29;18.70;99.90
13148;DHT22;6639;50.956;4.242;2023-05-15T05:53:56;19.10;99.90
13148;DHT22;6639;50.956;4.242;2023-05-15T05:56:24;19.20;99.90
13148;DHT22;6639;50.956;4.242;2023-05-15T05:58:51;19.00;99.90
13148;DHT22;6639;50.956;4.242;2023-05-15T06:01:18;18.80;99.90
13148;DHT22;6639;50.956;4.242;2023-05-15T06:03:46;18.50;99.90
13148;DHT22;6639;50.956;4.242;2023-05-15T06:06:13;18.70;99.90
13148;DHT22;6639;50.956;4.242;2023-05-15T06:08:40;18.80;99.90
13148;DHT22;6639;50.956;4.242;2023-05-15T06:11:07;19.00;99.90
13148;DHT22;6639;50.956;4.242;2023-05-15T06:13:35;18.80;99.90
13148;DHT22;6639;50.956;4.242;2023-05-15T06:16:02;18.90;99.90
13148;DHT22;6639;50.956;4.242;2023-05-15T06:18:29;19.10;99.90
13148;DHT22;6639;50.956;4.242;2023-05-15T06:20:56;18.90;99.90
13148;DHT22;6639;50.956;4.242;2023-05-15T06:23:24;19.00;99.90
13148;DHT22;6639;50.956;4.242;2023-05-15T06:25:51;19.30;99.90
13148;DHT22;6639;50.956;4.242;2023-05-15T06:28:18;18.50;99.90
13148;DHT22;6639;50.956;4.242;2023-05-15T06:30:47;18.20;99.90
13148;DHT22;6639;50.956;4.242;2023-05-15T06:33:14;18.50;99.90
13148;DHT22;6639;50.956;4.242;2023-05-15T06:35:41;18.10;99.90
13148;DHT22;6639;50.956;4.242;2023-05-15T06:38:08;18.40;99.90
13148;DHT22;6639;50.956;4.242;2023-05-15T06:40:35;18.50;99.90
13148;DHT22;6639;50.956;4.242;2023-05-15T06:43:02;18.40;99.90
13148;DHT22;6639;50.956;4.242;2023-05-15T06:45:29;18.20;99.90
13148;DHT22;6639;50.956;4.242;2023-05-15T06:47:57;18.20;99.90
13148;DHT22;6639;50.956;4.242;2023-05-15T06:50:24;18.40;99.90
13148;DHT22;6639;50.956;4.242;2023-05-15T06:52:51;18.40;99.90
13148;DHT22;6639;50.956;4.242;2023-05-15T06:55:19;18.50;99.90
13148;DHT22;6639;50.956;4.242;2023-05-15T06:57:46;18.60;99.90
13148;DHT22;6639;50.956;4.242;2023-05-15T07:00:14;18.70;99.90
13148;DHT22;6639;50.956;4.242;2023-05-15T07:02:41;18.80;99.90
13148;DHT22;6639;50.956;4.242;2023-05-15T07:05:10;18.80;99.90
13148;DHT22;6639;50.956;4.242;2023-05-15T07:07:37;18.60;99.90
13148;DHT22;6639;50.956;4.242;2023-05-15T07:10:05;18.50;99.90
13148;DHT22;6639;50.956;4.242;2023-05-15T07:12:33;18.30;99.90
13148;DHT22;6639;50.956;4.242;2023-05-15T07:15:00;18.50;99.90
13148;DHT22;6639;50.956;4.242;2023-05-15T07:17:26;18.40;99.90
13148;DHT22;6639;50.956;4.242;2023-05-15T07:19:54;18.40;99.90
13148;DHT22;6639;50.956;4.242;2023-05-15T07:22:22;18.70;99.90
13148;DHT22;6639;50.956;4.242;2023-05-15T07:24:49;18.70;99.90
13148;DHT22;6639;50.956;4.242;2023-05-15T07:27:16;18.80;99.90
13148;DHT22;6639;50.956;4.242;2023-05-15T07:29:43;18.60;99.90
13148;DHT22;6639;50.956;4.242;2023-05-15T07:32:10;18.90;99.90
13148;DHT22;6639;50.956;4.242;2023-05-15T07:34:37;19.10;99.90
13148;DHT22;6639;50.956;4.242;2023-05-15T07:37:04;19.30;99.90
13148;DHT22;6639;50.956;4.242;2023-05-15T07:39:33;19.30;99.90
13148;DHT22;6639;50.956;4.242;2023-05-15T07:42:00;19.40;99.90
13148;DHT22;6639;50.956;4.242;2023-05-15T07:44:27;19.40;99.90
13148;DHT22;6639;50.956;4.242;2023-05-15T07:46:54;19.80;99.90
13148;DHT22;6639;50.956;4.242;2023-05-15T07:49:21;20.10;99.90
13148;DHT22;6639;50.956;4.242;2023-05-15T07:51:50;19.90;99.90
13148;DHT22;6639;50.956;4.242;2023-05-15T07:54:17;19.90;99.90
13148;DHT22;6639;50.956;4.242;2023-05-15T07:56:46;19.60;99.90
13148;DHT22;6639;50.956;4.242;2023-05-15T07:59:13;19.80;99.90
13148;DHT22;6639;50.956;4.242;2023-05-15T08:01:40;20.00;99.90
13148;DHT22;6639;50.956;4.242;2023-05-15T08:04:08;19.80;99.90
13148;DHT22;6639;50.956;4.242;2023-05-15T08:06:35;19.80;99.90
13148;DHT22;6639;50.956;4.242;2023-05-15T08:09:04;19.60;99.90
13148;DHT22;6639;50.956;4.242;2023-05-15T08:11:31;20.00;99.90
13148;DHT22;6639;50.956;4.242;2023-05-15T08:13:59;19.80;99.90
13148;DHT22;6639;50.956;4.242;2023-05-15T08:16:27;19.50;99.90
13148;DHT22;6639;50.956;4.242;2023-05-15T08:18:54;19.40;99.90
13148;DHT22;6639;50.956;4.242;2023-05-15T08:21:25;19.30;99.90
13148;DHT22;6639;50.956;4.242;2023-05-15T08:23:52;19.50;99.90
13148;DHT22;6639;50.956;4.242;2023-05-15T08:26:19;19.60;99.90
13148;DHT22;6639;50.956;4.242;2023-05-15T08:28:46;19.60;99.90
13148;DHT22;6639;50.956;4.242;2023-05-15T08:31:15;19.50;99.90
13148;DHT22;6639;50.956;4.242;2023-05-15T08:33:42;19.80;99.90
13148;DHT22;6639;50.956;4.242;2023-05-15T08:36:09;19.80;99.90
13148;DHT22;6639;50.956;4.242;2023-05-15T08:38:36;19.90;99.90
13148;DHT22;6639;50.956;4.242;2023-05-15T08:41:06;20.40;99.90
13148;DHT22;6639;50.956;4.242;2023-05-15T08:43:36;20.30;99.90
13148;DHT22;6639;50.956;4.242;2023-05-15T08:46:06;20.20;99.90
13148;DHT22;6639;50.956;4.242;2023-05-15T08:48:36;20.20;99.90
13148;DHT22;6639;50.956;4.242;2023-05-15T08:51:05;20.30;99.90
13148;DHT22;6639;50.956;4.242;2023-05-15T08:53:34;20.60;99.90
13148;DHT22;6639;50.956;4.242;2023-05-15T08:56:02;20.40;99.90
13148;DHT22;6639;50.956;4.242;2023-05-15T08:58:29;20.30;99.90
13148;DHT22;6639;50.956;4.242;2023-05-15T09:00:57;20.30;99.90
13148;DHT22;6639;50.956;4.242;2023-05-15T09:03:25;20.10;99.90
13148;DHT22;6639;50.956;4.242;2023-05-15T09:05:54;20.40;99.90
13148;DHT22;6639;50.956;4.242;2023-05-15T09:08:22;20.60;99.90
13148;DHT22;6639;50.956;4.242;2023-05-15T09:10:52;20.40;99.90
13148;DHT22;6639;50.956;4.242;2023-05-15T09:13:18;20.60;99.90
13148;DHT22;6639;50.956;4.242;2023-05-15T09:15:46;20.20;99.90
13148;DHT22;6639;50.956;4.242;2023-05-15T09:18:14;20.70;99.90
13148;DHT22;6639;50.956;4.242;2023-05-15T09:20:43;20.60;99.90
13148;DHT22;6639;50.956;4.242;2023-05-15T09:23:24;20.50;99.90
13148;DHT22;6639;50.956;4.242;2023-05-15T09:25:51;20.70;99.90
13148;DHT22;6639;50.956;4.242;2023-05-15T09:28:26;20.70;99.90
13148;DHT22;6639;50.956;4.242;2023-05-15T09:30:58;20.80;99.90
13148;DHT22;6639;50.956;4.242;2023-05-15T09:33:33;21.00;99.90
13148;DHT22;6639;50.956;4.242;2023-05-15T09:36:01;20.90;99.90
13148;DHT22;6639;50.956;4.242;2023-05-15T09:38:31;20.30;99.90
13148;DHT22;6639;50.956;4.242;2023-05-15T09:41:03;20.90;99.90
13148;DHT22;6639;50.956;4.242;2023-05-15T09:43:33;21.10;99.90
13148;DHT22;6639;50.956;4.242;2023-05-15T09:46:01;21.30;99.90
13148;DHT22;6639;50.956;4.242;2023-05-15T09:48:29;21.40;99.90
13148;DHT22;6639;50.956;4.242;2023-05-15T09:50:56;21.00;99.90
13148;DHT22;6639;50.956;4.242;2023-05-15T09:53:23;21.30;99.90
13148;DHT22;6639;50.956;4.242;2023-05-15T09:55:53;21.60;99.90
13148;DHT22;6639;50.956;4.242;2023-05-15T09:58:20;21.90;99.90
13148;DHT22;6639;50.956;4.242;2023-05-15T10:00:47;21.80;99.90
13148;DHT22;6639;50.956;4.242;2023-05-15T10:03:17;22.00;99.90
13148;DHT22;6639;50.956;4.242;2023-05-15T10:05:45;21.90;99.90
13148;DHT22;6639;50.956;4.242;2023-05-15T10:08:12;21.80;99.90
13148;DHT22;6639;50.956;4.242;2023-05-15T10:10:41;21.80;99.90
13148;DHT22;6639;50.956;4.242;2023-05-15T10:13:10;21.70;99.90
13148;DHT22;6639;50.956;4.242;2023-05-15T10:15:38;21.90;99.90
13148;DHT22;6639;50.956;4.242;2023-05-15T10:18:05;21.90;99.90
13148;DHT22;6639;50.956;4.242;2023-05-15T10:20:33;22.00;99.90
13148;DHT22;6639;50.956;4.242;2023-05-15T10:23:04;22.10;99.90
13148;DHT22;6639;50.956;4.242;2023-05-15T10:25:37;22.50;99.90
13148;DHT22;6639;50.956;4.242;2023-05-15T10:30:51;22.60;99.90
13148;DHT22;6639;50.956;4.242;2023-05-15T10:33:20;22.90;99.90
13148;DHT22;6639;50.956;4.242;2023-05-15T10:35:48;23.10;99.90
13148;DHT22;6639;50.956;4.242;2023-05-15T10:38:18;22.80;99.90
13148;DHT22;6639;50.956;4.242;2023-05-15T10:40:51;23.10;99.90
13148;DHT22;6639;50.956;4.242;2023-05-15T10:43:19;22.70;99.90
13148;DHT22;6639;50.956;4.242;2023-05-15T10:45:46;22.40;99.90
13148;DHT22;6639;50.956;4.242;2023-05-15T10:48:16;22.70;99.90
13148;DHT22;6639;50.956;4.242;2023-05-15T10:50:43;22.60;99.90
13148;DHT22;6639;50.956;4.242;2023-05-15T10:53:10;22.70;99.90
13148;DHT22;6639;50.956;4.242;2023-05-15T10:55:38;22.80;99.90
13148;DHT22;6639;50.956;4.242;2023-05-15T10:58:08;22.70;99.90
13148;DHT22;6639;50.956;4.242;2023-05-15T11:00:41;23.10;99.90
13148;DHT22;6639;50.956;4.242;2023-05-15T11:03:12;23.20;99.90
13148;DHT22;6639;50.956;4.242;2023-05-15T11:06:06;22.40;99.90
13148;DHT22;6639;50.956;4.242;2023-05-15T11:08:35;22.10;99.90
13148;DHT22;6639;50.956;4.242;2023-05-15T11:11:02;22.30;99.90
13148;DHT22;6639;50.956;4.242;2023-05-15T11:16:56;22.20;99.90
13148;DHT22;6639;50.956;4.242;2023-05-15T11:19:24;22.10;99.90
13148;DHT22;6639;50.956;4.242;2023-05-15T11:21:59;22.00;99.90
13148;DHT22;6639;50.956;4.242;2023-05-15T11:24:26;21.80;99.90
13148;DHT22;6639;50.956;4.242;2023-05-15T11:26:58;21.40;99.90
13148;DHT22;6639;50.956;4.242;2023-05-15T11:29:26;20.90;99.90
13148;DHT22;6639;50.956;4.242;2023-05-15T11:31:53;20.90;99.90
13148;DHT22;6639;50.956;4.242;2023-05-15T11:34:29;20.90;99.90
13148;DHT22;6639;50.956;4.242;2023-05-15T11:36:59;20.80;99.90
13148;DHT22;6639;50.956;4.242;2023-05-15T11:39:26;20.80;99.90
13148;DHT22;6639;50.956;4.242;2023-05-15T11:41:53;20.50;99.90
13148;DHT22;6639;50.956;4.242;2023-05-15T11:44:21;20.40;99.90
13148;DHT22;6639;50.956;4.242;2023-05-15T11:46:49;20.70;99.90
13148;DHT22;6639;50.956;4.242;2023-05-15T11:49:18;21.00;99.90
13148;DHT22;6639;50.956;4.242;2023-05-15T11:51:47;21.10;99.90
13148;DHT22;6639;50.956;4.242;2023-05-15T11:54:16;21.10;99.90
13148;DHT22;6639;50.956;4.242;2023-05-15T11:56:44;21.30;99.90
13148;DHT22;6639;50.956;4.242;2023-05-15T11:59:12;21.40;99.90
13148;DHT22;6639;50.956;4.242;2023-05-15T12:01:40;21.50;99.90
13148;DHT22;6639;50.956;4.242;2023-05-15T12:04:11;21.40;99.90
13148;DHT22;6639;50.956;4.242;2023-05-15T12:06:39;21.20;99.90
13148;DHT22;6639;50.956;4.242;2023-05-15T12:09:12;21.20;99.90
13148;DHT22;6639;50.956;4.242;2023-05-15T12:11:47;20.90;99.90
13148;DHT22;6639;50.956;4.242;2023-05-15T12:14:14;20.80;99.90
13148;DHT22;6639;50.956;4.242;2023-05-15T12:16:41;20.60;99.90
13148;DHT22;6639;50.956;4.242;2023-05-15T12:19:09;20.60;99.90
13148;DHT22;6639;50.956;4.242;2023-05-15T12:21:36;20.70;99.90
13148;DHT22;6639;50.956;4.242;2023-05-15T12:24:10;20.90;99.90
13148;DHT22;6639;50.956;4.242;2023-05-15T12:26:37;21.00;99.90
13148;DHT22;6639;50.956;4.242;2023-05-15T12:29:06;21.30;99.90
13148;DHT22;6639;50.956;4.242;2023-05-15T12:31:34;21.60;99.90
13148;DHT22;6639;50.956;4.242;2023-05-15T12:34:01;21.80;99.90
13148;DHT22;6639;50.956;4.242;2023-05-15T12:36:28;21.70;99.90
13148;DHT22;6639;50.956;4.242;2023-05-15T12:38:56;21.40;99.90
13148;DHT22;6639;50.956;4.242;2023-05-15T12:41:26;21.00;99.90
13148;DHT22;6639;50.956;4.242;2023-05-15T12:43:54;20.10;99.90
13148;DHT22;6639;50.956;4.242;2023-05-15T12:46:23;19.70;99.90
13148;DHT22;6639;50.956;4.242;2023-05-15T12:48:50;19.50;99.90
13148;DHT22;6639;50.956;4.242;2023-05-15T12:51:17;19.20;99.90
13148;DHT22;6639;50.956;4.242;2023-05-15T12:53:45;18.80;99.90
13148;DHT22;6639;50.956;4.242;2023-05-15T12:56:15;18.60;99.90
13148;DHT22;6639;50.956;4.242;2023-05-15T12:58:42;18.40;99.90
13148;DHT22;6639;50.956;4.242;2023-05-15T13:01:09;18.30;99.90
13148;DHT22;6639;50.956;4.242;2023-05-15T13:03:37;18.20;99.90
13148;DHT22;6639;50.956;4.242;2023-05-15T13:06:05;18.30;99.90
13148;DHT22;6639;50.956;4.242;2023-05-15T13:08:38;17.80;99.90
13148;DHT22;6639;50.956;4.242;2023-05-15T13:11:10;17.80;99.90
13148;DHT22;6639;50.956;4.242;2023-05-15T13:13:41;18.00;99.90
13148;DHT22;6639;50.956;4.242;2023-05-15T13:16:17;18.60;99.90
13148;DHT22;6639;50.956;4.242;2023-05-15T13:18:46;18.80;99.90
13148;DHT22;6639;50.956;4.242;2023-05-15T13:21:13;18.30;99.90
13148;DHT22;6639;50.956;4.242;2023-05-15T13:23:40;18.40;99.90
13148;DHT22;6639;50.956;4.242;2023-05-15T13:26:07;18.20;99.90
13148;DHT22;6639;50.956;4.242;2023-05-15T13:28:35;18.40;99.90
13148;DHT22;6639;50.956;4.242;2023-05-15T13:31:02;18.30;99.90
13148;DHT22;6639;50.956;4.242;2023-05-15T13:33:29;18.50;99.90
13148;DHT22;6639;50.956;4.242;2023-05-15T13:35:57;18.50;99.90
13148;DHT22;6639;50.956;4.242;2023-05-15T13:38:24;18.70;99.90
13148;DHT22;6639;50.956;4.242;2023-05-15T13:40:51;18.70;99.90
13148;DHT22;6639;50.956;4.242;2023-05-15T13:43:19;19.00;99.90
13148;DHT22;6639;50.956;4.242;2023-05-15T13:45:45;18.80;99.90
13148;DHT22;6639;50.956;4.242;2023-05-15T13:48:13;18.30;99.90
13148;DHT22;6639;50.956;4.242;2023-05-15T13:50:40;18.00;99.90
13148;DHT22;6639;50.956;4.242;2023-05-15T13:53:09;18.00;99.90
13148;DHT22;6639;50.956;4.242;2023-05-15T13:55:36;17.90;99.90
13148;DHT22;6639;50.956;4.242;2023-05-15T13:58:03;17.60;99.90
13148;DHT22;6639;50.956;4.242;2023-05-15T14:00:30;17.80;99.90
13148;DHT22;6639;50.956;4.242;2023-05-15T14:02:57;17.80;99.90
13148;DHT22;6639;50.956;4.242;2023-05-15T14:05:24;18.10;99.90
13148;DHT22;6639;50.956;4.242;2023-05-15T14:07:52;18.10;99.90
13148;DHT22;6639;50.956;4.242;2023-05-15T14:10:20;18.10;99.90
13148;DHT22;6639;50.956;4.242;2023-05-15T14:12:48;18.10;99.90
13148;DHT22;6639;50.956;4.242;2023-05-15T14:15:15;17.90;99.90
13148;DHT22;6639;50.956;4.242;2023-05-15T14:17:42;17.80;99.90
13148;DHT22;6639;50.956;4.242;2023-05-15T14:20:11;17.70;99.90
13148;DHT22;6639;50.956;4.242;2023-05-15T14:22:38;17.50;99.90
13148;DHT22;6639;50.956;4.242;2023-05-15T14:25:07;17.40;99.90
13148;DHT22;6639;50.956;4.242;2023-05-15T14:27:36;17.60;99.90
13148;DHT22;6639;50.956;4.242;2023-05-15T14:30:04;17.90;99.90
13148;DHT22;6639;50.956;4.242;2023-05-15T14:32:31;17.80;99.90
13148;DHT22;6639;50.956;4.242;2023-05-15T14:34:58;18.10;99.90
13148;DHT22;6639;50.956;4.242;2023-05-15T14:37:26;18.10;99.90
13148;DHT22;6639;50.956;4.242;2023-05-15T14:39:53;18.10;99.90
13148;DHT22;6639;50.956;4.242;2023-05-15T14:42:20;18.00;99.90
13148;DHT22;6639;50.956;4.242;2023-05-15T14:44:48;18.20;99.90
13148;DHT22;6639;50.956;4.242;2023-05-15T14:47:15;17.90;99.90
13148;DHT22;6639;50.956;4.242;2023-05-15T14:49:42;17.90;99.90
13148;DHT22;6639;50.956;4.242;2023-05-15T14:52:10;18.50;99.90
13148;DHT22;6639;50.956;4.242;2023-05-15T14:54:38;18.50;99.90
13148;DHT22;6639;50.956;4.242;2023-05-15T14:57:05;18.90;99.90
13148;DHT22;6639;50.956;4.242;2023-05-15T14:59:32;18.80;99.90
13148;DHT22;6639;50.956;4.242;2023-05-15T15:02:00;18.80;99.90
13148;DHT22;6639;50.956;4.242;2023-05-15T15:04:27;18.60;99.90
13148;DHT22;6639;50.956;4.242;2023-05-15T15:06:58;18.60;99.90
13148;DHT22;6639;50.956;4.242;2023-05-15T15:09:25;18.80;99.90
13148;DHT22;6639;50.956;4.242;2023-05-15T15:11:52;18.40;99.90
13148;DHT22;6639;50.956;4.242;2023-05-15T15:14:19;18.10;99.90
13148;DHT22;6639;50.956;4.242;2023-05-15T15:16:47;18.40;99.90
13148;DHT22;6639;50.956;4.242;2023-05-15T15:19:15;18.30;99.90
13148;DHT22;6639;50.956;4.242;2023-05-15T15:21:42;18.70;99.90
13148;DHT22;6639;50.956;4.242;2023-05-15T15:24:09;19.00;99.90
13148;DHT22;6639;50.956;4.242;2023-05-15T15:26:36;19.10;99.90
13148;DHT22;6639;50.956;4.242;2023-05-15T15:29:03;19.20;99.90
13148;DHT22;6639;50.956;4.242;2023-05-15T15:31:30;18.90;99.90
13148;DHT22;6639;50.956;4.242;2023-05-15T15:33:57;19.00;99.90
13148;DHT22;6639;50.956;4.242;2023-05-15T15:36:26;19.10;99.90
13148;DHT22;6639;50.956;4.242;2023-05-15T15:38:52;18.70;99.90
13148;DHT22;6639;50.956;4.242;2023-05-15T15:41:19;18.80;99.90
13148;DHT22;6639;50.956;4.242;2023-05-15T15:43:47;19.10;99.90
13148;DHT22;6639;50.956;4.242;2023-05-15T15:46:15;19.00;99.90
13148;DHT22;6639;50.956;4.242;2023-05-15T15:48:42;19.40;99.90
13148;DHT22;6639;50.956;4.242;2023-05-15T15:51:09;19.40;99.90
13148;DHT22;6639;50.956;4.242;2023-05-15T15:53:37;19.40;99.90
13148;DHT22;6639;50.956;4.242;2023-05-15T15:56:05;19.00;99.90
13148;DHT22;6639;50.956;4.242;2023-05-15T15:58:32;19.00;99.90
13148;DHT22;6639;50.956;4.242;2023-05-15T16:00:59;19.50;99.90